Time;durP1;ratioP1;P1;durP2;ratioP2;P2;SDS_P1;SDS_P2;PMS_P1;PMS_P2;Temp;Humidity;BMP_temperature;BMP_pressure;BME280_temperature;BME280_humidity;BME280_pressure;Samples;Min_cycle;Max_cycle;Signal;HPM_P1;HPM_P2
2022/12/28 15:20:04;;;;;;;11.57;3.00;;;;;;;;;;5035735;28;86393;-63
2022/12/28 15:22:31;;;;;;;11.98;3.25;;;;;;;;;;5017415;28;86918;-63
2022/12/28 15:24:58;;;;;;;14.68;4.47;;;;;;;;;;5021930;28;87721;-64
2022/12/28 15:27:24;;;;;;;29.48;8.07;;;;;;;;;;5014099;27;87657;-62
2022/12/28 15:29:50;;;;;;;14.55;6.20;;;;;;;;;;5012545;28;88396;-62
2022/12/28 15:32:36;;;;;;;17.98;8.88;;;;;;;;;;5023044;28;88633;-63
2022/12/28 15:35:02;;;;;;;22.13;6.18;;;;;;;;;;5029452;27;87981;-63
2022/12/28 15:37:28;;;;;;;16.73;6.50;;;;;;;;;;5034540;28;87930;-63
2022/12/28 15:39:54;;;;;;;12.40;4.53;;;;;;;;;;5024618;27;87339;-64
2022/12/28 15:42:21;;;;;;;15.68;4.53;;;;;;;;;;5010534;28;87855;-63
2022/12/28 15:44:49;;;;;;;12.23;3.88;;;;;;;;;;5012872;28;88298;-63
2022/12/28 15:47:16;;;;;;;19.08;4.03;;;;;;;;;;5015137;28;88589;-63
2022/12/28 15:49:42;;;;;;;13.13;3.33;;;;;;;;;;5014253;28;88002;-64
2022/12/28 15:52:09;;;;;;;11.45;3.45;;;;;;;;;;5014295;28;87402;-63
2022/12/28 15:54:35;;;;;;;8.13;2.75;;;;;;;;;;5012630;28;88034;-64
2022/12/28 15:57:02;;;;;;;10.85;3.47;;;;;;;;;;5014389;28;87890;-63
2022/12/28 15:59:28;;;;;;;11.63;3.22;;;;;;;;;;5014200;28;87814;-63
2022/12/28 16:01:54;;;;;;;12.93;3.53;;;;;;;;;;5017178;28;87553;-63
2022/12/28 16:04:21;;;;;;;8.55;2.35;;;;;;;;;;5014241;28;86785;-63
2022/12/28 16:06:47;;;;;;;5.07;2.80;;;;;;;;;;5013464;28;90191;-64
2022/12/28 16:09:14;;;;;;;17.13;4.15;;;;;;;;;;5004610;28;88507;-64
2022/12/28 16:11:40;;;;;;;12.20;3.20;;;;;;;;;;4994508;28;87895;-63
2022/12/28 16:14:11;;;;;;;9.07;2.85;;;;;;;;;;5046496;27;88071;-63
2022/12/28 16:16:38;;;;;;;8.73;2.70;;;;;;;;;;5009798;28;88233;-63
2022/12/28 16:19:05;;;;;;;9.82;3.08;;;;;;;;;;5013244;28;87283;-63
2022/12/28 16:21:32;;;;;;;11.45;3.55;;;;;;;;;;5014393;28;87492;-62
2022/12/28 16:23:59;;;;;;;6.40;2.50;;;;;;;;;;5016957;28;87834;-63
2022/12/28 16:26:25;;;;;;;14.93;3.45;;;;;;;;;;5012771;28;87668;-63
2022/12/28 16:28:52;;;;;;;8.13;2.95;;;;;;;;;;5013847;28;88335;-63
2022/12/28 16:31:22;;;;;;;7.30;2.58;;;;;;;;;;4991944;28;87468;-63
2022/12/28 16:33:56;;;;;;;11.75;3.17;;;;;;;;;;4979508;28;87542;-63
2022/12/28 16:36:23;;;;;;;5.78;2.65;;;;;;;;;;4989688;28;87835;-63
2022/12/28 16:38:49;;;;;;;8.65;3.28;;;;;;;;;;4980473;28;86852;-63
2022/12/28 16:41:16;;;;;;;7.22;3.00;;;;;;;;;;4983830;28;87902;-62
2022/12/28 16:43:43;;;;;;;13.07;3.60;;;;;;;;;;4998491;28;89096;-61
2022/12/28 16:46:10;;;;;;;9.77;3.53;;;;;;;;;;5000062;28;88412;-62
2022/12/28 16:48:37;;;;;;;11.15;3.03;;;;;;;;;;5016324;28;88492;-62
2022/12/28 16:51:03;;;;;;;12.25;5.35;;;;;;;;;;4999661;28;89572;-62
2022/12/28 16:53:32;;;;;;;6.65;3.67;;;;;;;;;;4999921;28;88850;-62
2022/12/28 16:55:59;;;;;;;18.00;8.45;;;;;;;;;;4987055;28;88090;-61
2022/12/28 16:58:26;;;;;;;6.53;3.60;;;;;;;;;;4999375;28;88120;-60
2022/12/28 17:00:53;;;;;;;7.85;3.33;;;;;;;;;;5000112;28;87447;-62
2022/12/28 17:03:19;;;;;;;15.23;4.43;;;;;;;;;;4981079;28;87950;-62
2022/12/28 17:05:49;;;;;;;20.13;5.93;;;;;;;;;;4985317;28;88029;-61
2022/12/28 17:08:15;;;;;;;8.43;4.78;;;;;;;;;;5003370;28;87795;-62
2022/12/28 17:10:42;;;;;;;10.68;4.45;;;;;;;;;;4998644;28;86973;-62
2022/12/28 17:13:08;;;;;;;6.20;3.00;;;;;;;;;;4989214;28;87513;-62
2022/12/28 17:15:37;;;;;;;8.00;4.22;;;;;;;;;;4983508;28;89377;-62
2022/12/28 17:18:04;;;;;;;6.85;3.97;;;;;;;;;;4995532;28;87657;-62
2022/12/28 17:20:31;;;;;;;17.02;7.70;;;;;;;;;;4995878;28;87553;-63
2022/12/28 17:22:58;;;;;;;13.90;4.72;;;;;;;;;;4999728;28;87890;-62
2022/12/28 17:25:24;;;;;;;20.48;4.75;;;;;;;;;;4993831;28;87445;-62
2022/12/28 17:27:50;;;;;;;8.45;4.63;;;;;;;;;;4979943;28;87287;-63
2022/12/28 17:30:17;;;;;;;9.82;4.43;;;;;;;;;;4982202;28;86977;-62
2022/12/28 17:32:43;;;;;;;7.88;3.13;;;;;;;;;;4979732;28;87564;-62
2022/12/28 17:35:10;;;;;;;6.85;3.22;;;;;;;;;;4995407;28;87970;-62
2022/12/28 17:37:36;;;;;;;12.25;4.15;;;;;;;;;;4999221;28;87706;-63
2022/12/28 17:40:03;;;;;;;6.78;3.17;;;;;;;;;;4994664;28;90535;-62
2022/12/28 17:42:29;;;;;;;10.73;3.72;;;;;;;;;;4987569;28;87943;-62
2022/12/28 17:44:55;;;;;;;8.50;3.70;;;;;;;;;;4991462;28;87056;-61
2022/12/28 17:47:22;;;;;;;8.43;3.92;;;;;;;;;;4978672;28;86951;-61
2022/12/28 17:49:48;;;;;;;9.27;3.45;;;;;;;;;;4997443;28;88065;-61
2022/12/28 17:52:18;;;;;;;8.88;3.60;;;;;;;;;;4999706;28;88054;-61
2022/12/28 17:54:45;;;;;;;;;;;;;;;;;;4997505;28;89656;-61
2022/12/28 17:57:11;;;;;;;3.72;2.60;;;;;;;;;;4997533;28;118206;-61
2022/12/28 17:59:37;;;;;;;7.53;3.03;;;;;;;;;;4990075;28;87538;-61
2022/12/28 18:02:08;;;;;;;5.35;3.50;;;;;;;;;;4994196;28;87853;-61
2022/12/28 18:04:35;;;;;;;7.07;3.17;;;;;;;;;;4998009;28;89580;-62
2022/12/28 18:07:02;;;;;;;5.55;3.40;;;;;;;;;;4994213;28;88034;-62
2022/12/28 18:09:28;;;;;;;8.82;3.97;;;;;;;;;;4978988;28;88060;-62
2022/12/28 18:11:55;;;;;;;6.47;3.38;;;;;;;;;;4991037;28;87781;-62
2022/12/28 18:14:21;;;;;;;8.57;3.47;;;;;;;;;;4993588;28;87905;-62
2022/12/28 18:16:47;;;;;;;7.97;3.90;;;;;;;;;;4993602;28;86862;-62
2022/12/28 18:19:14;;;;;;;6.53;3.97;;;;;;;;;;4997031;28;87506;-62
2022/12/28 18:21:40;;;;;;;7.78;3.40;;;;;;;;;;4982254;28;87871;-63
2022/12/28 18:24:08;;;;;;;8.95;3.55;;;;;;;;;;4999011;28;87266;-62
2022/12/28 18:26:34;;;;;;;5.25;3.67;;;;;;;;;;4996083;28;86834;-62
2022/12/28 18:29:01;;;;;;;4.57;2.72;;;;;;;;;;4997423;28;88537;-62
2022/12/28 18:31:27;;;;;;;6.90;3.95;;;;;;;;;;4996726;28;88799;-62
2022/12/28 18:33:53;;;;;;;10.98;4.93;;;;;;;;;;4998542;28;87310;-62
2022/12/28 18:36:20;;;;;;;7.28;4.63;;;;;;;;;;4997054;28;88326;-61
2022/12/28 18:38:47;;;;;;;8.18;5.70;;;;;;;;;;5030314;28;87616;-61
2022/12/28 18:41:14;;;;;;;14.52;7.25;;;;;;;;;;4993489;28;87869;-62
2022/12/28 18:43:41;;;;;;;8.30;5.05;;;;;;;;;;4998145;28;88015;-61
2022/12/28 18:46:07;;;;;;;7.65;5.30;;;;;;;;;;4994123;28;88603;-62
2022/12/28 18:48:35;;;;;;;7.82;3.60;;;;;;;;;;4997471;28;88938;-62
2022/12/28 18:51:06;;;;;;;5.53;3.90;;;;;;;;;;4994051;28;87575;-62
2022/12/28 18:53:32;;;;;;;;;;;;;;;;;;4979969;28;86879;-61
2022/12/28 18:55:59;;;;;;;12.15;5.57;;;;;;;;;;4992749;28;118267;-63
2022/12/28 18:58:29;;;;;;;6.57;4.20;;;;;;;;;;4996501;28;87942;-62
2022/12/28 19:01:02;;;;;;;4.90;3.90;;;;;;;;;;4994772;28;86725;-62
2022/12/28 19:03:29;;;;;;;5.40;3.28;;;;;;;;;;4978376;28;86799;-62
2022/12/28 19:05:59;;;;;;;10.85;3.67;;;;;;;;;;4979783;28;88116;-62
2022/12/28 19:08:28;;;;;;;5.38;3.55;;;;;;;;;;4986173;28;88907;-63
2022/12/28 19:10:55;;;;;;;6.13;4.40;;;;;;;;;;4996734;28;87597;-62
2022/12/28 19:13:21;;;;;;;4.15;3.25;;;;;;;;;;4994532;28;88981;-62
2022/12/28 19:15:47;;;;;;;7.57;4.55;;;;;;;;;;4991271;28;88151;-63
2022/12/28 19:18:14;;;;;;;5.40;3.55;;;;;;;;;;4993811;28;87372;-62
2022/12/28 19:20:40;;;;;;;5.90;3.20;;;;;;;;;;4990287;28;87693;-62
2022/12/28 19:23:08;;;;;;;10.77;3.35;;;;;;;;;;4978907;28;87719;-63
2022/12/28 19:25:34;;;;;;;8.63;5.65;;;;;;;;;;4991384;28;89533;-62
2022/12/28 19:28:00;;;;;;;9.63;3.97;;;;;;;;;;5010496;28;87751;-62
2022/12/28 19:30:27;;;;;;;10.60;6.13;;;;;;;;;;4989822;28;88627;-62
2022/12/28 19:32:53;;;;;;;6.00;4.13;;;;;;;;;;4986418;28;89018;-62
2022/12/28 19:35:20;;;;;;;5.07;4.05;;;;;;;;;;4988284;28;89830;-62
2022/12/28 19:37:46;;;;;;;9.05;3.97;;;;;;;;;;5000013;28;89997;-63
2022/12/28 19:40:13;;;;;;;9.20;5.07;;;;;;;;;;4996635;28;88214;-64
2022/12/28 19:42:39;;;;;;;12.32;5.82;;;;;;;;;;4996952;28;88744;-64
2022/12/28 19:45:06;;;;;;;6.25;4.40;;;;;;;;;;4980834;28;88974;-63
2022/12/28 19:47:35;;;;;;;7.83;3.90;;;;;;;;;;4996550;28;88302;-62
2022/12/28 19:50:02;;;;;;;10.15;4.65;;;;;;;;;;4995996;28;88813;-63
2022/12/28 19:52:28;;;;;;;5.90;5.22;;;;;;;;;;4991107;28;88979;-64
2022/12/28 19:54:55;;;;;;;9.90;4.97;;;;;;;;;;4986905;28;89727;-64
2022/12/28 19:57:21;;;;;;;4.93;3.83;;;;;;;;;;4977037;28;88771;-63
2022/12/28 19:59:47;;;;;;;8.88;5.30;;;;;;;;;;4986288;28;89862;-62
2022/12/28 20:02:14;;;;;;;9.73;4.50;;;;;;;;;;4996744;28;89660;-63
2022/12/28 20:04:42;;;;;;;7.63;4.47;;;;;;;;;;4994032;28;88987;-62
2022/12/28 20:07:08;;;;;;;10.85;5.20;;;;;;;;;;5000270;28;88215;-63
2022/12/28 20:09:37;;;;;;;5.07;4.57;;;;;;;;;;4990985;28;89294;-62
2022/12/28 20:12:03;;;;;;;4.53;3.78;;;;;;;;;;4979885;28;89479;-63
2022/12/28 20:14:30;;;;;;;4.70;3.63;;;;;;;;;;4990123;28;88037;-62
2022/12/28 20:16:56;;;;;;;6.28;4.95;;;;;;;;;;4986716;28;88751;-62
2022/12/28 20:19:22;;;;;;;4.65;4.07;;;;;;;;;;4999909;28;88882;-62
2022/12/28 20:21:48;;;;;;;5.13;3.83;;;;;;;;;;4996063;28;88019;-63
2022/12/28 20:24:16;;;;;;;3.95;3.58;;;;;;;;;;4981440;28;90388;-63
2022/12/28 20:26:42;;;;;;;4.07;3.78;;;;;;;;;;4999652;28;88142;-62
2022/12/28 20:29:09;;;;;;;6.20;3.45;;;;;;;;;;5016771;28;89174;-62
2022/12/28 20:31:35;;;;;;;5.10;4.28;;;;;;;;;;5008668;28;89030;-63
2022/12/28 20:34:01;;;;;;;3.20;2.90;;;;;;;;;;5019196;28;90276;-63
2022/12/28 20:36:29;;;;;;;4.45;3.80;;;;;;;;;;4993828;28;88093;-63
2022/12/28 20:38:56;;;;;;;4.38;3.47;;;;;;;;;;4995275;28;88962;-63
2022/12/28 20:44:12;;;;;;;7.97;4.18;;;;;;;;;;4999477;28;89048;-63
2022/12/28 20:46:38;;;;;;;;;;;;;;;;;;4994298;28;88082;-63
2022/12/28 20:49:05;;;;;;;4.10;3.70;;;;;;;;;;4983501;28;117312;-63
2022/12/28 20:51:32;;;;;;;4.75;3.47;;;;;;;;;;4994960;28;89329;-62
2022/12/28 20:53:58;;;;;;;3.60;3.30;;;;;;;;;;4979411;28;88007;-63
2022/12/28 20:56:24;;;;;;;4.07;3.10;;;;;;;;;;4982095;28;92259;-63
2022/12/28 20:58:51;;;;;;;4.20;3.15;;;;;;;;;;4997993;28;92254;-63
2022/12/28 21:01:17;;;;;;;4.65;3.30;;;;;;;;;;4993711;28;88114;-62
2022/12/28 21:03:44;;;;;;;5.70;4.05;;;;;;;;;;4999286;28;88784;-62
2022/12/28 21:06:11;;;;;;;7.20;3.20;;;;;;;;;;5001021;28;88287;-63
2022/12/28 21:08:37;;;;;;;4.05;3.53;;;;;;;;;;4995525;28;88544;-62
2022/12/28 21:11:04;;;;;;;3.97;3.03;;;;;;;;;;4997659;28;89125;-63
2022/12/28 21:13:30;;;;;;;4.10;3.25;;;;;;;;;;4997297;28;89375;-62
2022/12/28 21:15:57;;;;;;;4.03;3.67;;;;;;;;;;4992664;28;89460;-63
2022/12/28 21:18:23;;;;;;;4.30;3.08;;;;;;;;;;4996774;28;89605;-63
2022/12/28 21:20:52;;;;;;;3.67;3.33;;;;;;;;;;4998649;28;88006;-62
2022/12/28 21:23:18;;;;;;;4.57;2.78;;;;;;;;;;4995919;28;90324;-62
2022/12/28 21:25:45;;;;;;;3.90;3.50;;;;;;;;;;4993593;28;89725;-63
2022/12/28 21:28:11;;;;;;;3.75;2.97;;;;;;;;;;4998838;28;88925;-62
2022/12/28 21:30:37;;;;;;;4.00;2.80;;;;;;;;;;4999045;28;88712;-63
2022/12/28 21:33:04;;;;;;;4.80;2.75;;;;;;;;;;4993307;28;89580;-62
2022/12/28 21:35:30;;;;;;;3.30;3.00;;;;;;;;;;4989163;28;88865;-63
2022/12/28 21:38:00;;;;;;;3.30;3.00;;;;;;;;;;5013863;28;90391;-63
2022/12/28 21:40:26;;;;;;;4.35;3.47;;;;;;;;;;5017552;28;88081;-63
2022/12/28 21:42:52;;;;;;;3.95;3.63;;;;;;;;;;5010983;28;87995;-63
2022/12/28 21:45:19;;;;;;;3.55;3.05;;;;;;;;;;4991238;28;89307;-63
2022/12/28 21:47:45;;;;;;;2.78;2.58;;;;;;;;;;4984755;28;88082;-64
2022/12/28 21:50:12;;;;;;;2.65;2.45;;;;;;;;;;4986017;28;89540;-62
2022/12/28 21:52:38;;;;;;;6.03;3.05;;;;;;;;;;4982633;28;88057;-63
2022/12/28 21:57:50;;;;;;;9.18;3.60;;;;;;;;;;4980436;28;89274;-63
2022/12/28 22:06:02;;;;;;;3.88;3.50;;;;;;;;;;4977796;28;89006;-62
2022/12/28 22:13:59;;;;;;;7.38;3.05;;;;;;;;;;4988482;28;88110;-62
2022/12/28 22:16:25;;;;;;;4.30;3.42;;;;;;;;;;4987372;28;88892;-63
2022/12/28 22:18:51;;;;;;;5.20;2.90;;;;;;;;;;4982834;28;88951;-64
2022/12/28 22:21:28;;;;;;;4.75;3.50;;;;;;;;;;4998607;28;89115;-62
2022/12/28 22:23:54;;;;;;;3.28;3.08;;;;;;;;;;4991577;28;88131;-62
2022/12/28 22:26:20;;;;;;;4.28;3.25;;;;;;;;;;4978097;28;90079;-63
2022/12/28 22:28:47;;;;;;;3.05;2.60;;;;;;;;;;4984516;28;88867;-62
2022/12/28 22:31:13;;;;;;;3.08;2.83;;;;;;;;;;4981079;28;90682;-62
2022/12/28 22:33:39;;;;;;;3.45;3.10;;;;;;;;;;4982818;28;89050;-63
2022/12/28 22:36:10;;;;;;;3.17;2.90;;;;;;;;;;4997690;28;88745;-62
